Terminal Aerodrome Forecast
Issued by NWS

Home | Current Version | Previous Version | Text Only | Print | Product List | Glossary On
Versions: 1 2 3 4 5 6 7 8 9 10 11 12 13 14 15 16
885
FTUS42 KTAE 220524
TAFABY
TAF
KABY 220524Z 2206/2306 VRB06KT P6SM SCT040 BKN070
     FM220700 VRB05KT 6SM -RA BR BKN020 OVC040
     FM221000 10005KT 6SM -RA BR SCT004 OVC007
     FM221500 09009KT P6SM -SHRA OVC015
     FM222000 09009KT P6SM VCSH SCT025 BKN040
     FM230000 07005KT P6SM BKN015=

USA.gov is the U.S. government's official web portal to all federal, state and local government web resources and services.